createdAt,value
2023-04-26T00:02:02.522Z,6.95
2023-04-26T00:04:30.358Z,6.94
2023-04-26T00:06:58.120Z,6.95
2023-04-26T00:09:25.475Z,6.95
2023-04-26T00:11:53.011Z,6.95
2023-04-26T00:14:20.282Z,6.95
2023-04-26T00:16:47.653Z,6.95
2023-04-26T00:19:14.910Z,6.93
2023-04-26T00:21:42.271Z,6.87
2023-04-26T00:24:09.902Z,6.87
2023-04-26T00:26:37.358Z,6.86
2023-04-26T00:29:05.562Z,6.85
2023-04-26T00:31:33.420Z,6.88
2023-04-26T00:34:01.175Z,6.85
2023-04-26T00:36:28.362Z,6.83
2023-04-26T00:38:55.905Z,6.84
2023-04-26T00:41:23.197Z,6.82
2023-04-26T00:43:50.770Z,6.82
2023-04-26T00:46:18.126Z,6.86
2023-04-26T00:48:45.484Z,6.85
2023-04-26T00:51:13.778Z,6.85
2023-04-26T00:53:42.104Z,6.85
2023-04-26T00:56:13.129Z,6.90
2023-04-26T00:58:40.515Z,6.91
2023-04-26T01:01:08.325Z,6.90
2023-04-26T01:03:37.829Z,6.89
2023-04-26T01:06:05.352Z,6.90
2023-04-26T01:08:32.641Z,6.86
2023-04-26T01:11:00.167Z,6.84
2023-04-26T01:13:28.182Z,6.86
2023-04-26T01:15:56.732Z,6.85
2023-04-26T01:18:24.465Z,6.84
2023-04-26T01:20:53.517Z,6.85
2023-04-26T01:23:20.812Z,6.86
2023-04-26T01:25:48.627Z,6.81
2023-04-26T01:28:15.995Z,6.69
2023-04-26T01:30:43.858Z,6.68
2023-04-26T01:33:11.792Z,6.69
2023-04-26T01:35:39.121Z,6.70
2023-04-26T01:38:06.506Z,6.73
2023-04-26T01:40:33.751Z,6.74
2023-04-26T01:43:03.677Z,6.76
2023-04-26T01:45:31.539Z,6.76
2023-04-26T01:48:17.132Z,6.71
2023-04-26T01:50:44.582Z,6.72
2023-04-26T01:53:14.019Z,6.70
2023-04-26T01:55:42.103Z,6.64
2023-04-26T01:58:09.979Z,6.63
2023-04-26T02:00:38.133Z,6.65
2023-04-26T02:03:05.680Z,6.63
2023-04-26T02:05:33.061Z,6.65
2023-04-26T02:08:00.371Z,6.65
2023-04-26T02:10:27.727Z,6.64
2023-04-26T02:12:55.021Z,6.65
2023-04-26T02:15:22.408Z,6.63
2023-04-26T02:17:49.995Z,6.61
2023-04-26T02:20:17.322Z,6.61
2023-04-26T02:22:44.545Z,6.60
2023-04-26T02:25:16.129Z,6.61
2023-04-26T02:27:43.323Z,6.59
2023-04-26T02:30:10.971Z,6.60
2023-04-26T02:32:38.346Z,6.58
2023-04-26T02:35:06.231Z,6.61
2023-04-26T02:37:37.669Z,6.62
2023-04-26T02:40:06.308Z,6.62
2023-04-26T02:42:33.532Z,6.64
2023-04-26T02:45:01.038Z,6.63
2023-04-26T02:47:28.403Z,6.60
2023-04-26T02:49:56.393Z,6.55
2023-04-26T02:52:23.720Z,6.54
2023-04-26T02:54:51.410Z,6.42
2023-04-26T02:57:18.708Z,6.28
2023-04-26T02:59:45.970Z,6.25
2023-04-26T03:02:13.408Z,6.28
2023-04-26T03:04:40.788Z,6.32
2023-04-26T03:07:08.004Z,6.29
2023-04-26T03:09:38.520Z,6.32
2023-04-26T03:12:09.500Z,6.31
2023-04-26T03:14:39.005Z,6.30
2023-04-26T03:17:06.610Z,6.31
2023-04-26T03:19:34.636Z,6.29
2023-04-26T03:22:04.221Z,6.27
2023-04-26T03:24:32.082Z,6.26
2023-04-26T03:27:00.368Z,6.26
2023-04-26T03:29:27.702Z,6.26
2023-04-26T03:31:55.009Z,6.24
2023-04-26T03:34:22.401Z,6.26
2023-04-26T03:36:50.035Z,6.26
2023-04-26T03:39:17.282Z,6.28
2023-04-26T03:41:44.624Z,6.25
2023-04-26T03:44:13.404Z,6.20
2023-04-26T03:46:41.023Z,6.21
2023-04-26T03:49:08.381Z,6.22
2023-04-26T03:51:35.732Z,6.28
2023-04-26T03:54:02.974Z,6.32
2023-04-26T03:56:30.234Z,6.29
2023-04-26T03:58:57.465Z,6.20
2023-04-26T04:01:26.673Z,6.26
2023-04-26T04:03:54.659Z,6.23
2023-04-26T04:06:22.317Z,6.25
2023-04-26T04:08:50.787Z,6.26
2023-04-26T04:11:18.269Z,6.27
2023-04-26T04:13:46.569Z,6.28
2023-04-26T04:16:13.943Z,6.30
2023-04-26T04:18:41.623Z,6.29
2023-04-26T04:21:08.989Z,6.32
2023-04-26T04:23:37.075Z,6.34
2023-04-26T04:26:08.380Z,6.36
2023-04-26T04:28:35.745Z,6.38
2023-04-26T04:31:03.235Z,6.33
2023-04-26T04:33:41.250Z,6.39
2023-04-26T04:36:10.601Z,6.32
2023-04-26T04:38:37.868Z,6.30
2023-04-26T04:41:08.859Z,6.34
2023-04-26T04:43:36.768Z,6.39
2023-04-26T04:46:04.146Z,6.41
2023-04-26T04:48:31.473Z,6.45
2023-04-26T04:50:58.850Z,6.51
2023-04-26T04:53:26.590Z,6.55
2023-04-26T04:55:53.909Z,6.61
2023-04-26T04:58:22.850Z,6.66
2023-04-26T05:00:51.860Z,6.73
2023-04-26T05:03:27.181Z,6.75
2023-04-26T05:05:54.623Z,6.82
2023-04-26T05:08:22.284Z,6.89
2023-04-26T05:10:50.056Z,6.93
2023-04-26T05:13:17.486Z,7.03
2023-04-26T05:15:45.032Z,7.17
2023-04-26T05:18:12.608Z,7.27
2023-04-26T05:20:40.236Z,7.42
2023-04-26T05:23:07.609Z,7.53
2023-04-26T05:25:38.046Z,7.63
2023-04-26T05:28:23.076Z,7.77
2023-04-26T05:31:14.581Z,7.78
2023-04-26T05:34:01.279Z,7.94
2023-04-26T05:36:43.229Z,8.13
2023-04-26T05:39:10.976Z,8.39
2023-04-26T05:41:38.765Z,8.42
2023-04-26T05:44:06.040Z,8.68
2023-04-26T05:46:33.416Z,9.14
2023-04-26T05:49:00.705Z,9.42
2023-04-26T05:51:28.643Z,9.87
2023-04-26T05:53:56.147Z,10.32
2023-04-26T05:56:24.813Z,10.63
2023-04-26T05:58:53.213Z,10.76
2023-04-26T06:01:20.865Z,11.14
2023-04-26T06:03:48.462Z,11.32
2023-04-26T06:06:20.463Z,11.58
2023-04-26T06:08:49.099Z,11.64
2023-04-26T06:11:16.372Z,11.65
2023-04-26T06:13:43.938Z,11.50
2023-04-26T06:16:11.749Z,11.24
2023-04-26T06:18:38.950Z,11.11
2023-04-26T06:21:07.347Z,11.19
2023-04-26T06:23:34.531Z,10.81
2023-04-26T06:26:01.855Z,10.74
2023-04-26T06:28:29.818Z,10.84
2023-04-26T06:30:57.417Z,10.74
2023-04-26T06:33:25.779Z,10.86
2023-04-26T06:35:53.072Z,10.67
2023-04-26T06:38:20.500Z,10.50
2023-04-26T06:40:49.317Z,10.70
2023-04-26T06:43:17.479Z,10.74
2023-04-26T06:46:13.990Z,11.20
2023-04-26T06:48:41.439Z,11.36
2023-04-26T06:51:09.208Z,11.56
2023-04-26T06:53:37.257Z,11.86
2023-04-26T06:56:04.648Z,12.24
2023-04-26T06:58:32.078Z,12.52
2023-04-26T07:00:59.623Z,12.66
2023-04-26T07:03:27.349Z,12.82
2023-04-26T07:05:56.778Z,12.87
2023-04-26T07:08:24.130Z,12.63
2023-04-26T07:10:52.173Z,12.67
2023-04-26T07:13:19.473Z,12.15
2023-04-26T07:15:46.793Z,11.73
2023-04-26T07:18:14.444Z,11.87
2023-04-26T07:20:41.775Z,12.43
2023-04-26T07:23:09.024Z,13.00
2023-04-26T07:25:36.346Z,13.17
2023-04-26T07:28:03.700Z,13.59
2023-04-26T07:30:32.898Z,14.31
2023-04-26T07:33:01.169Z,15.23
2023-04-26T07:35:28.429Z,14.93
2023-04-26T07:37:55.764Z,15.62
2023-04-26T07:40:26.688Z,17.55
2023-04-26T07:42:54.031Z,19.66
2023-04-26T07:45:21.788Z,20.26
2023-04-26T07:47:49.172Z,20.39
2023-04-26T07:50:16.568Z,18.52
2023-04-26T07:52:43.939Z,18.50
2023-04-26T07:55:11.664Z,18.71
2023-04-26T07:57:39.040Z,18.81
2023-04-26T08:00:10.749Z,18.78
2023-04-26T08:02:45.047Z,18.64
2023-04-26T08:05:14.283Z,17.46
2023-04-26T08:07:42.574Z,16.69
2023-04-26T08:10:10.789Z,15.96
2023-04-26T08:12:39.224Z,16.69
2023-04-26T08:15:06.984Z,17.17
2023-04-26T08:17:35.349Z,16.63
2023-04-26T08:20:02.698Z,17.05
2023-04-26T08:22:30.056Z,18.18
2023-04-26T08:24:57.478Z,18.29
2023-04-26T08:27:24.734Z,18.95
2023-04-26T08:29:52.018Z,20.88
2023-04-26T08:32:19.340Z,23.31
2023-04-26T08:34:46.978Z,25.61
2023-04-26T08:37:14.297Z,27.00
2023-04-26T08:39:42.037Z,27.86
2023-04-26T08:42:17.036Z,29.21
2023-04-26T08:44:46.063Z,28.72
2023-04-26T08:47:16.322Z,28.24
2023-04-26T08:49:45.873Z,27.09
2023-04-26T08:52:15.497Z,25.84
2023-04-26T08:54:43.308Z,24.70
2023-04-26T08:57:10.844Z,23.12
2023-04-26T08:59:39.503Z,23.74
2023-04-26T09:02:07.870Z,23.81
2023-04-26T09:04:35.582Z,22.55
2023-04-26T09:07:07.729Z,22.97
2023-04-26T09:09:39.323Z,22.71
2023-04-26T09:12:06.761Z,22.54
2023-04-26T09:14:34.123Z,22.17
2023-04-26T09:17:01.683Z,21.49
2023-04-26T09:19:40.580Z,21.10
2023-04-26T09:22:09.235Z,20.65
2023-04-26T09:24:52.645Z,20.04
2023-04-26T09:27:20.432Z,20.03
2023-04-26T09:30:09.684Z,20.66
2023-04-26T09:32:47.026Z,23.22
2023-04-26T09:35:30.891Z,23.73
2023-04-26T09:38:11.809Z,23.85
2023-04-26T09:40:42.594Z,23.98
2023-04-26T09:43:18.500Z,23.57
2023-04-26T09:45:56.470Z,25.67
2023-04-26T09:48:32.525Z,25.91
2023-04-26T09:51:11.808Z,28.51
2023-04-26T09:53:48.648Z,30.22
2023-04-26T09:56:19.203Z,31.96
2023-04-26T09:58:58.489Z,29.24
2023-04-26T10:01:28.807Z,26.14
2023-04-26T10:03:58.155Z,26.14
2023-04-26T10:06:26.045Z,26.27
2023-04-26T10:08:53.485Z,26.34
2023-04-26T10:11:22.255Z,25.18
2023-04-26T10:13:52.045Z,24.40
2023-04-26T10:16:21.295Z,24.56
2023-04-26T10:18:50.020Z,25.25
2023-04-26T10:21:26.220Z,24.88
2023-04-26T10:23:54.055Z,24.69
2023-04-26T10:26:50.350Z,23.99
2023-04-26T10:29:18.141Z,24.16
2023-04-26T10:32:04.976Z,23.56
2023-04-26T10:34:35.084Z,23.39
2023-04-26T10:37:18.623Z,22.93
2023-04-26T10:39:47.579Z,22.49
2023-04-26T10:42:25.853Z,21.85
2023-04-26T10:44:55.705Z,21.25
2023-04-26T10:47:27.145Z,20.74
2023-04-26T10:50:11.637Z,20.11
2023-04-26T10:53:04.641Z,19.50
2023-04-26T10:55:42.966Z,19.05
2023-04-26T10:58:33.839Z,18.62
2023-04-26T11:01:21.496Z,18.54
2023-04-26T11:03:58.393Z,18.41
2023-04-26T11:06:27.201Z,18.50
2023-04-26T11:08:55.197Z,18.65
2023-04-26T11:11:27.338Z,18.65
2023-04-26T11:13:54.632Z,18.83
2023-04-26T11:16:21.950Z,18.63
2023-04-26T11:18:49.316Z,18.35
2023-04-26T11:21:19.247Z,17.94
2023-04-26T11:23:56.395Z,17.59
2023-04-26T11:26:25.106Z,17.25
2023-04-26T11:28:52.757Z,16.91
2023-04-26T11:31:20.209Z,16.72
2023-04-26T11:33:49.897Z,16.77
2023-04-26T11:36:19.950Z,16.87
2023-04-26T11:38:47.546Z,16.87
2023-04-26T11:41:14.872Z,17.08
2023-04-26T11:43:42.367Z,17.28
2023-04-26T11:46:10.516Z,17.45
2023-04-26T11:48:39.255Z,17.33
2023-04-26T11:51:08.686Z,17.36
2023-04-26T11:53:43.448Z,17.11
2023-04-26T11:56:18.100Z,17.05
2023-04-26T11:58:50.421Z,16.89
2023-04-26T12:01:28.055Z,16.80
2023-04-26T12:03:58.566Z,16.93
2023-04-26T12:06:42.006Z,16.98
2023-04-26T12:09:09.720Z,16.77
2023-04-26T12:11:37.109Z,16.66
2023-04-26T12:14:04.475Z,16.77
2023-04-26T12:16:32.146Z,17.01
2023-04-26T12:18:59.487Z,17.39
2023-04-26T12:21:30.709Z,17.73
2023-04-26T12:23:58.501Z,18.02
2023-04-26T12:26:43.321Z,18.19
2023-04-26T12:29:10.807Z,18.22
2023-04-26T12:31:38.142Z,18.27
2023-04-26T12:34:05.391Z,18.31
2023-04-26T12:36:32.960Z,18.26
2023-04-26T12:39:01.324Z,18.17
2023-04-26T12:41:28.473Z,18.00
2023-04-26T12:43:55.742Z,17.94
2023-04-26T12:46:22.954Z,18.02
2023-04-26T12:48:50.251Z,17.86
2023-04-26T12:51:17.506Z,17.96
2023-04-26T12:53:44.815Z,18.03
2023-04-26T12:56:12.092Z,17.68
2023-04-26T12:58:39.440Z,17.27
2023-04-26T13:01:06.681Z,17.63
2023-04-26T13:03:34.087Z,17.93
2023-04-26T13:06:02.010Z,18.04
2023-04-26T13:08:29.362Z,18.03
2023-04-26T13:10:57.102Z,18.04
2023-04-26T13:13:32.427Z,18.07
2023-04-26T13:16:07.884Z,17.98
2023-04-26T13:18:35.179Z,17.73
2023-04-26T13:21:02.554Z,17.58
2023-04-26T13:23:29.717Z,17.45
2023-04-26T13:25:57.022Z,16.88
2023-04-26T13:28:24.197Z,17.07
2023-04-26T13:30:53.106Z,17.21
2023-04-26T13:33:21.712Z,16.96
2023-04-26T13:35:49.173Z,17.20
2023-04-26T13:38:17.184Z,17.32
2023-04-26T13:40:45.358Z,17.30
2023-04-26T13:43:12.691Z,17.29
2023-04-26T13:45:40.038Z,17.24
2023-04-26T13:48:07.589Z,17.35
2023-04-26T13:50:37.035Z,17.45
2023-04-26T13:53:04.870Z,17.48
2023-04-26T13:55:32.361Z,17.22
2023-04-26T13:57:59.637Z,17.33
2023-04-26T14:00:27.558Z,17.30
2023-04-26T14:02:55.039Z,17.37
2023-04-26T14:05:24.014Z,17.36
2023-04-26T14:07:53.549Z,17.23
2023-04-26T14:10:22.373Z,17.14
2023-04-26T14:12:49.781Z,17.14
2023-04-26T14:15:17.128Z,17.13
2023-04-26T14:17:47.226Z,17.04
2023-04-26T14:20:14.838Z,16.84
2023-04-26T14:22:42.135Z,16.80
2023-04-26T14:25:10.043Z,16.67
2023-04-26T14:27:39.756Z,16.58
2023-04-26T14:30:07.989Z,16.72
2023-04-26T14:32:35.343Z,16.71
2023-04-26T14:35:02.780Z,16.78
2023-04-26T14:37:30.070Z,16.76
2023-04-26T14:39:57.367Z,16.65
2023-04-26T14:42:24.580Z,16.54
2023-04-26T14:44:52.037Z,16.47
2023-04-26T14:47:19.398Z,16.29
2023-04-26T14:49:46.711Z,16.14
2023-04-26T14:52:14.008Z,16.04
2023-04-26T14:54:41.969Z,15.80
2023-04-26T14:57:10.616Z,15.71
2023-04-26T14:59:38.031Z,15.65
2023-04-26T15:02:05.891Z,15.59
2023-04-26T15:04:33.354Z,15.53
2023-04-26T15:07:00.985Z,15.53
2023-04-26T15:09:30.406Z,15.44
2023-04-26T15:11:58.108Z,15.37
2023-04-26T15:14:25.310Z,15.35
2023-04-26T15:16:52.761Z,15.28
2023-04-26T15:19:20.120Z,15.25
2023-04-26T15:21:47.485Z,15.24
2023-04-26T15:24:14.658Z,15.21
2023-04-26T15:26:42.431Z,15.19
2023-04-26T15:29:09.598Z,15.19
2023-04-26T15:31:37.342Z,15.31
2023-04-26T15:34:05.027Z,15.26
2023-04-26T15:36:32.466Z,15.22
2023-04-26T15:38:59.753Z,15.19
2023-04-26T15:41:27.189Z,15.06
2023-04-26T15:43:57.877Z,14.91
2023-04-26T15:46:25.206Z,14.61
2023-04-26T15:48:52.650Z,14.42
2023-04-26T15:51:19.936Z,14.20
2023-04-26T15:53:47.168Z,13.99
2023-04-26T15:56:18.620Z,13.77
2023-04-26T15:58:47.362Z,13.64
2023-04-26T16:01:15.306Z,13.40
2023-04-26T16:03:46.545Z,13.25
2023-04-26T16:06:15.148Z,13.12
2023-04-26T16:08:42.638Z,12.99
2023-04-26T16:11:10.030Z,12.93
2023-04-26T16:13:37.591Z,12.88
2023-04-26T16:16:11.978Z,12.80
2023-04-26T16:18:44.152Z,12.77
2023-04-26T16:21:13.482Z,12.77
2023-04-26T16:23:42.179Z,12.76
2023-04-26T16:26:09.863Z,12.73
2023-04-26T16:28:37.361Z,12.70
2023-04-26T16:31:04.863Z,12.68
2023-04-26T16:33:32.117Z,12.70
2023-04-26T16:35:59.575Z,12.66
2023-04-26T16:38:27.152Z,12.60
2023-04-26T16:40:59.248Z,12.58
2023-04-26T16:43:27.563Z,12.50
2023-04-26T16:46:08.317Z,12.47
2023-04-26T16:48:37.428Z,12.39
2023-04-26T16:51:07.598Z,12.28
2023-04-26T16:53:36.144Z,12.20
2023-04-26T16:56:04.263Z,12.10
2023-04-26T16:58:31.838Z,11.98
2023-04-26T17:00:59.171Z,11.89
2023-04-26T17:03:27.123Z,11.76
2023-04-26T17:05:54.708Z,11.67
2023-04-26T17:08:22.332Z,11.58
2023-04-26T17:10:49.866Z,11.49
2023-04-26T17:13:17.188Z,11.40
2023-04-26T17:15:44.599Z,11.33
2023-04-26T17:18:12.020Z,11.28
2023-04-26T17:20:39.361Z,11.25
2023-04-26T17:23:08.209Z,11.23
2023-04-26T17:25:35.557Z,11.17
2023-04-26T17:28:03.256Z,11.10
2023-04-26T17:30:30.872Z,11.02
2023-04-26T17:32:58.214Z,10.94
2023-04-26T17:35:25.678Z,10.87
2023-04-26T17:37:52.993Z,10.79
2023-04-26T17:40:20.471Z,10.71
2023-04-26T17:42:47.952Z,10.64
2023-04-26T17:45:15.448Z,10.57
2023-04-26T17:47:43.472Z,10.51
2023-04-26T17:50:11.169Z,10.42
2023-04-26T17:52:38.817Z,10.35
2023-04-26T17:55:08.791Z,10.27
2023-04-26T17:57:39.380Z,10.18
2023-04-26T18:00:07.147Z,10.10
2023-04-26T18:02:35.698Z,10.02
2023-04-26T18:05:04.254Z,9.95
2023-04-26T18:07:31.745Z,9.87
2023-04-26T18:09:58.947Z,9.81
2023-04-26T18:12:26.467Z,9.73
2023-04-26T18:14:53.707Z,9.64
2023-04-26T18:17:21.200Z,9.54
2023-04-26T18:19:48.445Z,9.41
2023-04-26T18:22:15.859Z,9.30
2023-04-26T18:24:43.063Z,9.19
2023-04-26T18:27:13.482Z,9.04
2023-04-26T18:29:41.101Z,8.88
2023-04-26T18:32:08.532Z,8.75
2023-04-26T18:34:35.870Z,8.64
2023-04-26T18:37:03.217Z,8.52
2023-04-26T18:39:30.862Z,8.41
2023-04-26T18:42:02.436Z,8.30
2023-04-26T18:44:29.619Z,8.20
2023-04-26T18:46:57.280Z,8.12
2023-04-26T18:49:25.792Z,8.07
2023-04-26T18:51:53.232Z,8.04
2023-04-26T18:54:20.567Z,8.01
2023-04-26T18:56:47.858Z,7.98
2023-04-26T18:59:15.159Z,7.95
2023-04-26T19:01:42.528Z,7.92
2023-04-26T19:04:10.110Z,7.92
2023-04-26T19:06:37.634Z,7.92
2023-04-26T19:09:06.871Z,7.91
2023-04-26T19:11:34.239Z,7.91
2023-04-26T19:14:01.632Z,7.91
2023-04-26T19:16:29.042Z,7.88
2023-04-26T19:18:56.235Z,7.87
2023-04-26T19:21:23.523Z,7.86
2023-04-26T19:23:50.956Z,7.86
2023-04-26T19:26:18.440Z,7.86
2023-04-26T19:28:45.885Z,7.86
2023-04-26T19:31:13.372Z,7.87
2023-04-26T19:33:40.843Z,7.87
2023-04-26T19:36:10.357Z,7.90
2023-04-26T19:38:37.601Z,7.92
2023-04-26T19:41:04.885Z,7.94
2023-04-26T19:43:32.219Z,7.95
2023-04-26T19:45:59.801Z,7.97
2023-04-26T19:48:28.373Z,7.97
2023-04-26T19:50:55.705Z,7.95
2023-04-26T19:53:23.043Z,7.92
2023-04-26T19:55:50.366Z,7.89
2023-04-26T19:58:17.645Z,7.84
2023-04-26T20:00:44.919Z,7.82
2023-04-26T20:03:12.487Z,7.80
2023-04-26T20:05:39.834Z,7.76
2023-04-26T20:08:07.170Z,7.72
2023-04-26T20:10:34.673Z,7.70
2023-04-26T20:13:03.122Z,7.70
2023-04-26T20:15:32.269Z,7.68
2023-04-26T20:18:02.650Z,7.65
2023-04-26T20:20:30.011Z,7.60
2023-04-26T20:22:57.360Z,7.59
2023-04-26T20:25:24.692Z,7.56
2023-04-26T20:27:52.008Z,7.56
2023-04-26T20:30:19.405Z,7.48
2023-04-26T20:32:47.423Z,7.41
2023-04-26T20:35:14.704Z,7.38
2023-04-26T20:37:42.014Z,7.31
2023-04-26T20:40:09.896Z,7.26
2023-04-26T20:42:37.181Z,7.16
2023-04-26T20:45:04.761Z,6.99
2023-04-26T20:47:32.783Z,6.83
2023-04-26T20:50:00.172Z,6.74
2023-04-26T20:52:27.539Z,6.69
2023-04-26T20:54:56.850Z,6.65
2023-04-26T20:57:24.984Z,6.67
2023-04-26T20:59:52.224Z,6.67
2023-04-26T21:02:19.749Z,6.71
2023-04-26T21:04:47.390Z,6.70
2023-04-26T21:07:14.909Z,6.70
2023-04-26T21:09:43.208Z,6.76
2023-04-26T21:12:10.504Z,6.88
2023-04-26T21:14:37.784Z,6.94
2023-04-26T21:17:06.305Z,6.98
2023-04-26T21:19:33.689Z,7.03
2023-04-26T21:22:00.904Z,7.05
2023-04-26T21:24:28.426Z,7.05
2023-04-26T21:26:55.778Z,7.05
2023-04-26T21:29:23.042Z,7.08
2023-04-26T21:31:50.392Z,7.19
2023-04-26T21:34:17.777Z,7.24
2023-04-26T21:36:45.198Z,7.28
2023-04-26T21:39:12.687Z,7.32
2023-04-26T21:41:40.110Z,7.37
2023-04-26T21:44:07.651Z,7.38
2023-04-26T21:46:34.974Z,7.36
2023-04-26T21:49:02.223Z,7.37
2023-04-26T21:51:29.473Z,7.36
2023-04-26T21:53:56.803Z,7.34
2023-04-26T21:56:24.541Z,7.33
2023-04-26T21:58:51.763Z,7.32
2023-04-26T22:01:19.043Z,7.32
2023-04-26T22:03:46.583Z,7.25
2023-04-26T22:06:14.104Z,7.16
2023-04-26T22:08:41.634Z,7.14
2023-04-26T22:11:08.924Z,7.12
2023-04-26T22:13:36.197Z,7.09
2023-04-26T22:16:03.865Z,7.01
2023-04-26T22:18:31.181Z,6.96
2023-04-26T22:20:58.531Z,6.92
2023-04-26T22:23:26.142Z,6.92
2023-04-26T22:25:53.391Z,6.94
2023-04-26T22:28:20.831Z,6.94
2023-04-26T22:30:48.092Z,6.97
2023-04-26T22:33:15.400Z,6.99
2023-04-26T22:35:42.824Z,6.99
2023-04-26T22:38:10.150Z,7.02
2023-04-26T22:40:37.554Z,7.02
2023-04-26T22:43:04.802Z,7.04
2023-04-26T22:45:32.016Z,7.02
2023-04-26T22:47:59.403Z,7.04
2023-04-26T22:50:26.678Z,7.04
2023-04-26T22:52:54.130Z,7.06
2023-04-26T22:55:21.356Z,7.10
2023-04-26T22:57:48.752Z,7.12
2023-04-26T23:00:16.350Z,7.13
2023-04-26T23:02:43.905Z,7.11
2023-04-26T23:05:11.740Z,7.11
2023-04-26T23:07:40.049Z,7.12
2023-04-26T23:10:07.957Z,7.11
2023-04-26T23:12:36.473Z,7.10
2023-04-26T23:15:05.873Z,7.09
2023-04-26T23:17:34.551Z,7.07
2023-04-26T23:20:02.114Z,7.04
2023-04-26T23:22:29.536Z,7.01
2023-04-26T23:24:56.831Z,6.97
2023-04-26T23:27:25.443Z,6.93
2023-04-26T23:29:52.663Z,6.90
2023-04-26T23:32:19.892Z,6.85
2023-04-26T23:34:47.270Z,6.80
2023-04-26T23:37:14.521Z,6.74
2023-04-26T23:39:41.754Z,6.69
2023-04-26T23:42:09.075Z,6.64
2023-04-26T23:44:36.379Z,6.57
2023-04-26T23:47:03.727Z,6.50
2023-04-26T23:49:31.142Z,6.42
2023-04-26T23:51:58.430Z,6.33
2023-04-26T23:54:25.814Z,6.27
2023-04-26T23:56:53.074Z,6.21
2023-04-26T23:59:20.272Z,6.15
